Time;durP1;ratioP1;P1;durP2;ratioP2;P2;SDS_P1;SDS_P2;PMS_P1;PMS_P2;Temp;Humidity;BMP_temperature;BMP_pressure;BME280_temperature;BME280_humidity;BME280_pressure;Samples;Min_cycle;Max_cycle;Signal;HPM_P1;HPM_P2
2023/08/11 00:00:33;;;;;;;0.10;0.10;;;;;;;;;;5103317;28;20379;-49
2023/08/11 00:02:58;;;;;;;0.10;0.10;;;;;;;;;;5104437;28;20052;-45
2023/08/11 00:05:24;;;;;;;0.10;0.10;;;;;;;;;;5102794;28;20050;-47
2023/08/11 00:07:50;;;;;;;0.90;0.28;;;;;;;;;;5104092;28;20052;-46
2023/08/11 00:10:17;;;;;;;0.10;0.10;;;;;;;;;;5103776;28;20048;-50
2023/08/11 00:12:43;;;;;;;0.13;0.13;;;;;;;;;;5103079;28;20059;-47
2023/08/11 00:15:08;;;;;;;0.20;0.20;;;;;;;;;;5103971;28;20067;-49
2023/08/11 00:17:34;;;;;;;0.10;0.10;;;;;;;;;;5102917;28;20480;-51
2023/08/11 00:19:59;;;;;;;0.10;0.10;;;;;;;;;;5102064;28;20067;-48
2023/08/11 00:22:25;;;;;;;0.20;0.20;;;;;;;;;;5095333;28;20055;-49
2023/08/11 00:24:50;;;;;;;0.20;0.20;;;;;;;;;;5104558;28;20044;-46
2023/08/11 00:27:16;;;;;;;0.20;0.20;;;;;;;;;;5104313;28;20426;-46
2023/08/11 00:29:42;;;;;;;0.20;0.20;;;;;;;;;;5103935;28;20051;-46
2023/08/11 00:32:07;;;;;;;0.20;0.20;;;;;;;;;;5102502;28;20047;-47
2023/08/11 00:34:33;;;;;;;0.10;0.10;;;;;;;;;;5103894;28;20051;-47
2023/08/11 00:36:58;;;;;;;0.10;0.10;;;;;;;;;;5104796;28;20047;-49
2023/08/11 00:39:24;;;;;;;0.10;0.10;;;;;;;;;;5104100;28;20079;-48
2023/08/11 00:41:50;;;;;;;0.20;0.20;;;;;;;;;;5100714;28;20051;-48
2023/08/11 00:44:16;;;;;;;0.20;0.20;;;;;;;;;;5107286;28;20052;-46
2023/08/11 00:46:43;;;;;;;0.20;0.20;;;;;;;;;;5107742;28;20079;-47
2023/08/11 00:49:09;;;;;;;0.20;0.20;;;;;;;;;;5106821;28;20048;-46
2023/08/11 00:51:35;;;;;;;0.20;0.20;;;;;;;;;;5106788;28;20508;-47
2023/08/11 00:54:01;;;;;;;0.10;0.10;;;;;;;;;;5107072;28;20104;-46
2023/08/11 00:56:26;;;;;;;0.20;0.20;;;;;;;;;;5108418;28;20519;-50
2023/08/11 00:58:53;;;;;;;0.20;0.20;;;;;;;;;;5107450;28;20123;-47
2023/08/11 01:01:18;;;;;;;0.20;0.20;;;;;;;;;;5106310;28;20078;-46
2023/08/11 01:03:47;;;;;;;0.10;0.10;;;;;;;;;;5107980;28;20531;-46
2023/08/11 01:06:21;;;;;;;0.20;0.20;;;;;;;;;;5106895;28;20089;-46
2023/08/11 01:09:06;;;;;;;0.10;0.10;;;;;;;;;;5107170;28;20055;-47
2023/08/11 01:11:52;;;;;;;0.10;0.10;;;;;;;;;;5091795;28;20047;-47
2023/08/11 01:14:22;;;;;;;0.17;0.17;;;;;;;;;;5103070;28;20055;-47
2023/08/11 01:16:50;;;;;;;0.15;0.15;;;;;;;;;;5108177;28;20081;-49
2023/08/11 01:19:26;;;;;;;0.20;0.20;;;;;;;;;;5105993;28;20063;-47
2023/08/11 01:21:53;;;;;;;0.13;0.13;;;;;;;;;;5106119;28;20096;-50
2023/08/11 01:24:19;;;;;;;0.17;0.17;;;;;;;;;;5107783;28;20047;-47
2023/08/11 01:26:46;;;;;;;0.10;0.10;;;;;;;;;;5108034;28;20483;-46
2023/08/11 01:29:11;;;;;;;0.20;0.20;;;;;;;;;;5106973;28;20492;-48
2023/08/11 01:31:37;;;;;;;0.20;0.20;;;;;;;;;;5107021;28;20058;-48
2023/08/11 01:34:03;;;;;;;0.20;0.20;;;;;;;;;;5107278;28;20048;-50
2023/08/11 01:36:28;;;;;;;0.20;0.20;;;;;;;;;;5107391;28;20059;-47
2023/08/11 01:38:54;;;;;;;0.20;0.20;;;;;;;;;;5107316;28;20044;-49
2023/08/11 01:41:20;;;;;;;0.20;0.20;;;;;;;;;;5094300;28;20063;-46
2023/08/11 01:43:46;;;;;;;0.10;0.10;;;;;;;;;;5105602;28;20075;-50
2023/08/11 01:46:12;;;;;;;0.10;0.10;;;;;;;;;;5119400;28;20293;-49
2023/08/11 01:48:38;;;;;;;0.10;0.10;;;;;;;;;;5127411;28;20081;-50
2023/08/11 01:51:04;;;;;;;0.15;0.15;;;;;;;;;;5117531;28;20146;-50
2023/08/11 01:53:29;;;;;;;0.20;0.20;;;;;;;;;;5105759;28;20043;-49
2023/08/11 01:55:55;;;;;;;0.20;0.20;;;;;;;;;;5106446;28;20047;-49
2023/08/11 01:58:20;;;;;;;0.20;0.20;;;;;;;;;;5106686;28;20104;-47
2023/08/11 02:00:46;;;;;;;0.20;0.20;;;;;;;;;;5106422;28;20069;-49
2023/08/11 02:03:12;;;;;;;0.20;0.20;;;;;;;;;;5106121;28;20438;-47
2023/08/11 02:05:38;;;;;;;0.13;0.13;;;;;;;;;;5107235;28;20071;-47
2023/08/11 02:08:04;;;;;;;0.10;0.10;;;;;;;;;;5106661;28;20555;-45
2023/08/11 02:10:30;;;;;;;0.20;0.20;;;;;;;;;;5098673;28;20067;-46
2023/08/11 02:12:55;;;;;;;0.10;0.10;;;;;;;;;;5097496;28;20404;-49
2023/08/11 02:15:21;;;;;;;0.10;0.10;;;;;;;;;;5106014;28;20081;-49
2023/08/11 02:17:46;;;;;;;0.25;0.25;;;;;;;;;;5106238;28;20051;-49
2023/08/11 02:20:27;;;;;;;0.10;0.10;;;;;;;;;;5105584;28;20048;-47
2023/08/11 02:22:52;;;;;;;0.20;0.20;;;;;;;;;;5105284;28;20508;-48
2023/08/11 02:25:18;;;;;;;0.20;0.20;;;;;;;;;;5106217;28;20126;-46
2023/08/11 02:27:44;;;;;;;0.10;0.10;;;;;;;;;;5106766;28;20400;-47
2023/08/11 02:30:11;;;;;;;0.20;0.20;;;;;;;;;;5104701;28;20379;-47
2023/08/11 02:32:37;;;;;;;0.20;0.20;;;;;;;;;;5105269;28;20043;-47
2023/08/11 02:35:03;;;;;;;0.10;0.10;;;;;;;;;;5106835;28;20048;-49
2023/08/11 02:37:29;;;;;;;0.10;0.10;;;;;;;;;;5106660;28;20095;-47
2023/08/11 02:39:55;;;;;;;0.10;0.10;;;;;;;;;;5105674;28;20179;-47
2023/08/11 02:42:20;;;;;;;0.10;0.10;;;;;;;;;;5091907;28;20820;-49
2023/08/11 02:44:46;;;;;;;0.20;0.20;;;;;;;;;;5106144;27;20062;-45
2023/08/11 02:47:11;;;;;;;0.20;0.20;;;;;;;;;;5109468;28;20048;-47
2023/08/11 02:49:37;;;;;;;0.20;0.20;;;;;;;;;;5106264;28;20039;-48
2023/08/11 02:52:02;;;;;;;0.20;0.20;;;;;;;;;;5105947;28;20051;-46
2023/08/11 02:54:29;;;;;;;0.10;0.10;;;;;;;;;;5106522;28;20044;-49
2023/08/11 02:56:55;;;;;;;0.10;0.10;;;;;;;;;;5106981;28;20043;-48
2023/08/11 02:59:20;;;;;;;0.10;0.10;;;;;;;;;;5105702;28;20085;-57
2023/08/11 03:01:46;;;;;;;0.10;0.10;;;;;;;;;;5105789;28;20051;-54
2023/08/11 03:04:11;;;;;;;0.20;0.20;;;;;;;;;;5105925;28;20419;-56
2023/08/11 03:06:37;;;;;;;0.20;0.20;;;;;;;;;;5105045;28;20051;-54
2023/08/11 03:09:03;;;;;;;0.20;0.20;;;;;;;;;;5105444;28;20081;-57
2023/08/11 03:11:29;;;;;;;0.10;0.10;;;;;;;;;;5104883;28;20104;-55
2023/08/11 03:13:54;;;;;;;0.10;0.10;;;;;;;;;;5105488;28;20484;-57
2023/08/11 03:16:20;;;;;;;0.10;0.10;;;;;;;;;;5105923;28;20273;-55
2023/08/11 03:18:45;;;;;;;0.10;0.10;;;;;;;;;;5105309;28;20077;-54
2023/08/11 03:21:11;;;;;;;0.20;0.20;;;;;;;;;;5093526;28;20322;-55
2023/08/11 03:23:45;;;;;;;0.10;0.10;;;;;;;;;;5104211;28;20649;-57
2023/08/11 03:26:11;;;;;;;0.20;0.20;;;;;;;;;;5105802;28;20559;-57
2023/08/11 03:28:36;;;;;;;0.20;0.20;;;;;;;;;;5105581;28;20047;-56
2023/08/11 03:31:02;;;;;;;0.10;0.10;;;;;;;;;;5104865;28;20446;-56
2023/08/11 03:33:27;;;;;;;0.20;0.20;;;;;;;;;;5104864;28;20419;-54
2023/08/11 03:35:53;;;;;;;0.20;0.20;;;;;;;;;;5105181;28;20108;-57
2023/08/11 03:38:18;;;;;;;0.20;0.20;;;;;;;;;;5104716;28;20040;-55
2023/08/11 03:40:44;;;;;;;0.20;0.20;;;;;;;;;;5104912;28;20393;-56
2023/08/11 03:43:09;;;;;;;0.20;0.20;;;;;;;;;;5104521;28;20506;-56
2023/08/11 03:45:35;;;;;;;0.10;0.10;;;;;;;;;;5113299;28;20043;-55
2023/08/11 03:48:01;;;;;;;0.20;0.20;;;;;;;;;;5104199;28;20142;-54
2023/08/11 03:50:27;;;;;;;0.10;0.10;;;;;;;;;;5105036;28;20113;-57
2023/08/11 03:52:52;;;;;;;0.20;0.20;;;;;;;;;;5104852;28;20442;-54
2023/08/11 03:55:18;;;;;;;0.10;0.10;;;;;;;;;;5105369;28;20492;-54
2023/08/11 03:57:44;;;;;;;0.20;0.20;;;;;;;;;;5105147;28;20067;-56
2023/08/11 04:00:14;;;;;;;0.10;0.10;;;;;;;;;;5104990;28;20070;-56
2023/08/11 04:02:39;;;;;;;0.20;0.20;;;;;;;;;;5104040;28;20056;-55
2023/08/11 04:05:05;;;;;;;0.10;0.10;;;;;;;;;;5105196;28;20056;-57
2023/08/11 04:07:31;;;;;;;0.20;0.20;;;;;;;;;;5104668;28;20503;-55
2023/08/11 04:09:58;;;;;;;0.20;0.20;;;;;;;;;;5103936;28;20446;-57
2023/08/11 04:12:24;;;;;;;0.20;0.20;;;;;;;;;;5099797;28;20051;-57
2023/08/11 04:14:49;;;;;;;0.20;0.20;;;;;;;;;;5105448;28;20050;-55
2023/08/11 04:17:16;;;;;;;0.17;0.17;;;;;;;;;;5107010;28;20044;-55
2023/08/11 04:19:42;;;;;;;0.15;0.15;;;;;;;;;;5108022;28;20215;-54
2023/08/11 04:22:08;;;;;;;0.20;0.20;;;;;;;;;;5089593;28;20052;-55
2023/08/11 04:24:34;;;;;;;0.13;0.13;;;;;;;;;;5107634;28;20047;-57
2023/08/11 04:27:00;;;;;;;0.20;0.20;;;;;;;;;;5108750;28;20543;-56
2023/08/11 04:29:26;;;;;;;0.20;0.20;;;;;;;;;;5108634;28;20047;-56
2023/08/11 04:31:51;;;;;;;0.10;0.10;;;;;;;;;;5108231;28;20100;-56
2023/08/11 04:34:17;;;;;;;0.20;0.20;;;;;;;;;;5107280;28;20051;-56
2023/08/11 04:36:42;;;;;;;0.20;0.20;;;;;;;;;;5108911;28;20044;-55
2023/08/11 04:39:08;;;;;;;0.20;0.20;;;;;;;;;;5107909;28;20048;-57
2023/08/11 04:41:34;;;;;;;0.20;0.20;;;;;;;;;;5106042;28;20104;-56
2023/08/11 04:43:59;;;;;;;0.10;0.10;;;;;;;;;;5098072;27;20071;-56
2023/08/11 04:46:25;;;;;;;0.10;0.10;;;;;;;;;;5104885;28;20052;-56
2023/08/11 04:48:51;;;;;;;0.10;0.10;;;;;;;;;;5103463;28;20050;-56
2023/08/11 04:51:16;;;;;;;0.20;0.20;;;;;;;;;;5095172;28;20048;-53
2023/08/11 04:53:42;;;;;;;0.10;0.10;;;;;;;;;;5100210;28;20075;-56
2023/08/11 04:56:08;;;;;;;0.20;0.20;;;;;;;;;;5105261;28;21884;-55
2023/08/11 04:58:34;;;;;;;0.20;0.20;;;;;;;;;;5096796;28;20044;-54
2023/08/11 05:01:03;;;;;;;0.20;0.20;;;;;;;;;;5099863;28;20132;-46
2023/08/11 05:03:29;;;;;;;0.10;0.10;;;;;;;;;;5103852;28;20086;-46
2023/08/11 05:05:55;;;;;;;0.10;0.10;;;;;;;;;;5106988;28;20544;-51
2023/08/11 05:08:21;;;;;;;0.13;0.13;;;;;;;;;;5105929;28;20155;-50
2023/08/11 05:10:46;;;;;;;0.20;0.20;;;;;;;;;;5106259;28;20040;-45
2023/08/11 05:13:12;;;;;;;0.20;0.20;;;;;;;;;;5106055;28;20047;-46
2023/08/11 05:15:38;;;;;;;0.20;0.20;;;;;;;;;;5104862;28;20518;-51
2023/08/11 05:18:04;;;;;;;0.20;0.20;;;;;;;;;;5105475;28;20483;-49
2023/08/11 05:20:30;;;;;;;0.20;0.20;;;;;;;;;;5105426;28;20101;-47
2023/08/11 05:22:56;;;;;;;0.10;0.10;;;;;;;;;;5105045;28;20066;-46
2023/08/11 05:25:21;;;;;;;0.20;0.20;;;;;;;;;;5105922;28;20477;-49
2023/08/11 05:27:47;;;;;;;0.20;0.20;;;;;;;;;;5105007;28;20051;-50
2023/08/11 05:30:13;;;;;;;0.17;0.17;;;;;;;;;;5104910;28;20082;-49
2023/08/11 05:32:39;;;;;;;0.20;0.20;;;;;;;;;;5098537;28;20056;-50
2023/08/11 05:35:05;;;;;;;1.20;0.30;;;;;;;;;;5102895;28;20500;-49
2023/08/11 05:37:31;;;;;;;0.15;0.15;;;;;;;;;;5103832;28;20500;-48
2023/08/11 05:39:56;;;;;;;0.10;0.10;;;;;;;;;;5102625;28;20043;-48
2023/08/11 05:42:22;;;;;;;0.20;0.20;;;;;;;;;;5097491;28;20047;-57
2023/08/11 05:44:47;;;;;;;0.20;0.20;;;;;;;;;;5100280;28;20086;-45
2023/08/11 05:47:13;;;;;;;0.20;0.20;;;;;;;;;;5091574;28;20039;-51
2023/08/11 05:49:39;;;;;;;0.20;0.20;;;;;;;;;;5098213;28;20052;-47
2023/08/11 05:52:04;;;;;;;0.20;0.20;;;;;;;;;;5093392;28;20056;-51
2023/08/11 05:54:30;;;;;;;0.20;0.20;;;;;;;;;;5092352;28;20116;-47
2023/08/11 05:56:56;;;;;;;0.20;0.20;;;;;;;;;;5094470;28;20074;-49
2023/08/11 05:59:21;;;;;;;0.20;0.20;;;;;;;;;;5083480;28;20818;-51
2023/08/11 06:01:47;;;;;;;0.20;0.20;;;;;;;;;;5084223;28;20047;-46
2023/08/11 06:04:13;;;;;;;0.10;0.10;;;;;;;;;;5084426;28;20050;-51
2023/08/11 06:06:38;;;;;;;0.20;0.20;;;;;;;;;;5086943;28;20545;-50
2023/08/11 06:09:04;;;;;;;0.20;0.20;;;;;;;;;;5092868;28;20130;-50
2023/08/11 06:11:31;;;;;;;0.20;0.20;;;;;;;;;;5090233;28;20057;-49
2023/08/11 06:13:57;;;;;;;0.20;0.20;;;;;;;;;;5085651;28;20286;-48
2023/08/11 06:16:22;;;;;;;0.20;0.20;;;;;;;;;;5096950;28;20560;-48
2023/08/11 06:18:48;;;;;;;0.20;0.20;;;;;;;;;;5097202;28;20668;-46
2023/08/11 06:21:14;;;;;;;0.10;0.10;;;;;;;;;;5098433;28;20460;-46
2023/08/11 06:23:40;;;;;;;0.20;0.20;;;;;;;;;;5095154;28;20419;-47
2023/08/11 06:26:05;;;;;;;0.20;0.20;;;;;;;;;;5095928;28;20104;-46
2023/08/11 06:28:31;;;;;;;0.20;0.20;;;;;;;;;;5099105;28;20055;-48
2023/08/11 06:30:56;;;;;;;0.20;0.20;;;;;;;;;;5090998;28;20047;-45
2023/08/11 06:33:25;;;;;;;;;;;;;;;;;;5096018;28;20048;-49
2023/08/11 06:35:50;;;;;;;0.20;0.20;;;;;;;;;;5092365;28;19928;-51
2023/08/11 06:38:16;;;;;;;0.20;0.20;;;;;;;;;;5096915;28;20453;-49
2023/08/11 06:40:41;;;;;;;0.20;0.20;;;;;;;;;;5092801;28;20370;-49
2023/08/11 06:43:07;;;;;;;0.20;0.20;;;;;;;;;;5091853;28;20138;-49
2023/08/11 06:45:32;;;;;;;0.20;0.20;;;;;;;;;;5085662;28;20206;-50
2023/08/11 06:47:58;;;;;;;0.10;0.10;;;;;;;;;;5084689;28;20344;-48
2023/08/11 06:50:24;;;;;;;0.10;0.10;;;;;;;;;;5074915;28;20048;-48
2023/08/11 06:52:50;;;;;;;0.20;0.20;;;;;;;;;;5081102;28;20087;-49
2023/08/11 06:55:16;;;;;;;0.20;0.20;;;;;;;;;;5078234;28;20048;-48
2023/08/11 06:57:41;;;;;;;0.20;0.20;;;;;;;;;;5073288;28;20097;-48
2023/08/11 07:00:07;;;;;;;0.20;0.20;;;;;;;;;;5071244;28;20120;-47
2023/08/11 07:02:33;;;;;;;0.20;0.20;;;;;;;;;;5069879;28;20039;-48
2023/08/11 07:04:59;;;;;;;0.20;0.20;;;;;;;;;;5053457;28;20131;-50
2023/08/11 07:07:25;;;;;;;0.20;0.20;;;;;;;;;;5062462;28;21782;-49
2023/08/11 07:09:50;;;;;;;0.10;0.10;;;;;;;;;;5065909;28;20269;-47
2023/08/11 07:12:16;;;;;;;0.20;0.20;;;;;;;;;;5073889;28;20055;-49
2023/08/11 07:14:43;;;;;;;0.10;0.10;;;;;;;;;;5064746;28;20055;-48
2023/08/11 07:17:08;;;;;;;0.17;0.17;;;;;;;;;;5080751;28;20048;-47
2023/08/11 07:19:35;;;;;;;0.20;0.20;;;;;;;;;;5076969;28;20043;-46
2023/08/11 07:22:00;;;;;;;0.20;0.20;;;;;;;;;;5082951;28;20044;-48
2023/08/11 07:24:26;;;;;;;0.10;0.10;;;;;;;;;;5080817;28;20067;-53
2023/08/11 07:26:51;;;;;;;0.20;0.20;;;;;;;;;;5087349;28;20644;-45
2023/08/11 07:29:18;;;;;;;0.20;0.20;;;;;;;;;;5087373;28;20055;-50
2023/08/11 07:31:43;;;;;;;0.10;0.10;;;;;;;;;;5076831;28;20058;-54
2023/08/11 07:34:09;;;;;;;0.17;0.17;;;;;;;;;;5083472;28;20049;-46
2023/08/11 07:36:35;;;;;;;0.20;0.20;;;;;;;;;;5088926;28;22116;-46
2023/08/11 07:39:00;;;;;;;0.20;0.20;;;;;;;;;;5086607;28;20044;-48
2023/08/11 07:41:46;;;;;;;0.20;0.20;;;;;;;;;;5078267;28;20047;-47
2023/08/11 07:44:11;;;;;;;0.10;0.10;;;;;;;;;;5096098;28;20060;-48
2023/08/11 07:46:37;;;;;;;0.20;0.20;;;;;;;;;;5085923;28;20051;-47
2023/08/11 07:49:02;;;;;;;0.20;0.20;;;;;;;;;;5091211;28;20121;-48
2023/08/11 07:51:28;;;;;;;0.20;0.20;;;;;;;;;;5083469;27;20056;-48
2023/08/11 07:53:54;;;;;;;0.10;0.10;;;;;;;;;;5084319;28;20108;-46
2023/08/11 07:56:19;;;;;;;0.20;0.20;;;;;;;;;;5084726;28;20059;-48
2023/08/11 07:58:46;;;;;;;0.20;0.20;;;;;;;;;;5091683;28;20051;-50
2023/08/11 08:01:11;;;;;;;0.17;0.17;;;;;;;;;;5084040;28;20229;-47
2023/08/11 08:03:37;;;;;;;0.20;0.20;;;;;;;;;;5067807;28;20040;-52
2023/08/11 08:06:04;;;;;;;0.20;0.20;;;;;;;;;;5076624;28;20637;-49
2023/08/11 08:08:31;;;;;;;0.20;0.20;;;;;;;;;;5064401;28;20051;-51
2023/08/11 08:10:57;;;;;;;0.20;0.20;;;;;;;;;;5067754;28;20051;-49
2023/08/11 08:13:22;;;;;;;0.17;0.17;;;;;;;;;;5074610;28;20054;-50
2023/08/11 08:15:48;;;;;;;0.20;0.20;;;;;;;;;;5069373;28;21508;-50
2023/08/11 08:18:13;;;;;;;0.15;0.15;;;;;;;;;;5074906;28;20139;-49
2023/08/11 08:20:39;;;;;;;0.10;0.10;;;;;;;;;;5083776;28;20055;-48
2023/08/11 08:23:05;;;;;;;0.20;0.20;;;;;;;;;;5086082;28;20051;-49
2023/08/11 08:25:30;;;;;;;0.10;0.10;;;;;;;;;;5084669;28;20180;-51
2023/08/11 08:27:56;;;;;;;0.10;0.10;;;;;;;;;;5086053;28;20578;-52
2023/08/11 08:30:32;;;;;;;0.10;0.10;;;;;;;;;;5085650;28;20052;-49
2023/08/11 08:32:57;;;;;;;0.13;0.13;;;;;;;;;;5073805;28;20044;-49
2023/08/11 08:35:23;;;;;;;0.20;0.20;;;;;;;;;;5076012;28;20147;-52
2023/08/11 08:37:48;;;;;;;0.10;0.10;;;;;;;;;;5074745;28;20139;-52
2023/08/11 08:40:15;;;;;;;0.10;0.10;;;;;;;;;;5078788;28;20044;-47
2023/08/11 08:42:41;;;;;;;0.10;0.10;;;;;;;;;;5088470;28;20463;-50
2023/08/11 08:45:08;;;;;;;0.20;0.20;;;;;;;;;;5090412;28;20260;-50
2023/08/11 08:47:34;;;;;;;0.20;0.20;;;;;;;;;;5090199;28;20056;-53
2023/08/11 08:50:01;;;;;;;0.30;0.30;;;;;;;;;;5089601;28;20184;-48
2023/08/11 08:52:26;;;;;;;0.10;0.10;;;;;;;;;;5085766;28;20052;-52
2023/08/11 08:54:52;;;;;;;0.17;0.17;;;;;;;;;;5084038;28;20097;-50
2023/08/11 08:57:20;;;;;;;0.10;0.10;;;;;;;;;;5090780;28;20274;-50
2023/08/11 08:59:46;;;;;;;0.10;0.10;;;;;;;;;;5092026;28;20237;-52
2023/08/11 09:02:11;;;;;;;0.20;0.20;;;;;;;;;;5094145;28;20055;-49
2023/08/11 09:04:38;;;;;;;0.20;0.20;;;;;;;;;;5096845;28;20051;-57
2023/08/11 09:07:03;;;;;;;0.20;0.20;;;;;;;;;;5099281;28;20051;-57
2023/08/11 09:09:29;;;;;;;0.20;0.20;;;;;;;;;;5094649;28;20868;-57
2023/08/11 09:11:55;;;;;;;0.20;0.20;;;;;;;;;;5102909;28;20093;-58
2023/08/11 09:14:21;;;;;;;0.10;0.10;;;;;;;;;;5093414;28;20044;-62
2023/08/11 09:16:50;;;;;;;0.20;0.20;;;;;;;;;;5093893;28;20047;-57
2023/08/11 09:19:16;;;;;;;0.20;0.20;;;;;;;;;;5094931;28;20491;-56
2023/08/11 09:21:43;;;;;;;0.20;0.20;;;;;;;;;;5090809;28;20051;-57
2023/08/11 09:24:13;;;;;;;0.10;0.10;;;;;;;;;;5093187;28;20054;-57
2023/08/11 09:26:44;;;;;;;0.20;0.20;;;;;;;;;;5091941;28;20048;-57
2023/08/11 09:29:10;;;;;;;0.20;0.20;;;;;;;;;;5094313;28;20051;-57
2023/08/11 09:31:36;;;;;;;0.20;0.20;;;;;;;;;;5088333;28;20109;-57
2023/08/11 09:34:10;;;;;;;0.20;0.20;;;;;;;;;;5083039;28;20048;-57
2023/08/11 09:36:35;;;;;;;0.20;0.20;;;;;;;;;;5079034;28;20063;-54
2023/08/11 09:39:05;;;;;;;0.20;0.20;;;;;;;;;;5078834;28;20142;-57
2023/08/11 09:41:31;;;;;;;0.20;0.20;;;;;;;;;;5079450;28;20055;-56
2023/08/11 09:43:58;;;;;;;0.20;0.20;;;;;;;;;;5084299;28;20039;-57
2023/08/11 09:46:24;;;;;;;0.10;0.10;;;;;;;;;;5087909;28;20131;-57
2023/08/11 09:48:54;;;;;;;0.20;0.20;;;;;;;;;;5094082;28;20062;-57
2023/08/11 09:51:20;;;;;;;0.20;0.20;;;;;;;;;;5100683;28;20396;-55
2023/08/11 09:53:46;;;;;;;0.20;0.20;;;;;;;;;;5090679;28;20471;-57
2023/08/11 09:56:12;;;;;;;0.10;0.10;;;;;;;;;;5093273;27;20476;-57
2023/08/11 09:58:38;;;;;;;0.20;0.20;;;;;;;;;;5098694;28;20118;-57
2023/08/11 10:01:07;;;;;;;0.20;0.20;;;;;;;;;;5093233;28;20050;-57
2023/08/11 10:03:47;;;;;;;0.10;0.10;;;;;;;;;;5086848;28;20035;-57
2023/08/11 10:06:16;;;;;;;0.10;0.10;;;;;;;;;;5093063;28;20044;-55
2023/08/11 10:08:41;;;;;;;;;;;;;;;;;;5089165;28;20047;-56
2023/08/11 10:11:07;;;;;;;0.10;0.10;;;;;;;;;;5096011;28;19930;-56
2023/08/11 10:13:33;;;;;;;0.40;0.40;;;;;;;;;;5094153;28;20078;-57
2023/08/11 10:15:59;;;;;;;0.10;0.10;;;;;;;;;;5100108;28;20236;-57
2023/08/11 10:18:25;;;;;;;0.75;0.22;;;;;;;;;;5099485;28;20055;-57
2023/08/11 10:20:51;;;;;;;0.20;0.20;;;;;;;;;;5093448;28;20392;-55
2023/08/11 10:23:17;;;;;;;0.20;0.20;;;;;;;;;;5097681;28;20484;-57
2023/08/11 10:25:44;;;;;;;0.20;0.20;;;;;;;;;;5092634;28;20050;-57
2023/08/11 10:28:12;;;;;;;0.20;0.20;;;;;;;;;;5088491;28;20040;-57
2023/08/11 10:30:38;;;;;;;0.20;0.20;;;;;;;;;;5091534;28;20801;-56
2023/08/11 10:33:04;;;;;;;0.10;0.10;;;;;;;;;;5093027;28;20415;-55
2023/08/11 10:35:46;;;;;;;0.20;0.20;;;;;;;;;;5098612;28;20043;-55
2023/08/11 10:38:11;;;;;;;0.20;0.20;;;;;;;;;;5093866;28;20059;-57
2023/08/11 10:40:38;;;;;;;0.10;0.10;;;;;;;;;;5087561;28;20051;-57
2023/08/11 10:43:05;;;;;;;0.20;0.20;;;;;;;;;;5085331;28;20455;-56
2023/08/11 10:45:31;;;;;;;0.20;0.20;;;;;;;;;;5085469;28;20492;-55
2023/08/11 10:47:58;;;;;;;0.20;0.20;;;;;;;;;;5082933;28;20179;-57
2023/08/11 10:50:26;;;;;;;0.10;0.10;;;;;;;;;;5089082;28;20051;-57
2023/08/11 10:53:11;;;;;;;0.10;0.10;;;;;;;;;;5092826;28;20702;-57
2023/08/11 10:55:38;;;;;;;0.10;0.10;;;;;;;;;;5081869;28;20039;-57
2023/08/11 10:58:12;;;;;;;0.20;0.20;;;;;;;;;;5089339;28;20040;-57
2023/08/11 11:00:38;;;;;;;0.10;0.10;;;;;;;;;;5091821;28;20120;-57
2023/08/11 11:03:04;;;;;;;0.20;0.20;;;;;;;;;;5097138;28;20074;-57
2023/08/11 11:05:30;;;;;;;0.20;0.20;;;;;;;;;;5099492;28;20142;-56
2023/08/11 11:07:56;;;;;;;0.10;0.10;;;;;;;;;;5094444;28;20460;-56
2023/08/11 11:10:21;;;;;;;0.20;0.20;;;;;;;;;;5087994;28;20788;-57
2023/08/11 11:12:50;;;;;;;0.20;0.20;;;;;;;;;;5098582;28;20306;-54
2023/08/11 11:15:16;;;;;;;0.10;0.10;;;;;;;;;;5099720;28;20413;-55
2023/08/11 11:17:42;;;;;;;0.20;0.20;;;;;;;;;;5102763;28;20535;-57
2023/08/11 11:20:08;;;;;;;0.20;0.20;;;;;;;;;;5101595;28;20560;-56
2023/08/11 11:22:36;;;;;;;0.10;0.10;;;;;;;;;;5096793;28;20047;-58
2023/08/11 11:25:02;;;;;;;;;;;;;;;;;;5094148;28;20127;-56
2023/08/11 11:27:28;;;;;;;0.20;0.20;;;;;;;;;;5097712;28;19963;-57
2023/08/11 11:29:58;;;;;;;0.20;0.20;;;;;;;;;;5095487;28;20040;-57
2023/08/11 11:32:23;;;;;;;0.10;0.10;;;;;;;;;;5094382;28;20078;-55
2023/08/11 11:34:49;;;;;;;0.20;0.20;;;;;;;;;;5086384;28;20059;-57
2023/08/11 11:37:15;;;;;;;0.17;0.17;;;;;;;;;;5095125;28;20170;-58
2023/08/11 11:39:40;;;;;;;0.13;0.13;;;;;;;;;;5091983;28;20039;-57
2023/08/11 11:42:08;;;;;;;0.20;0.20;;;;;;;;;;5081191;28;20553;-56
2023/08/11 11:44:35;;;;;;;;;;;;;;;;;;5076686;28;20048;-57
2023/08/11 11:47:02;;;;;;;0.10;0.10;;;;;;;;;;5081965;28;19923;-57
2023/08/11 11:49:29;;;;;;;0.20;0.20;;;;;;;;;;5086186;28;20043;-56
2023/08/11 11:51:56;;;;;;;0.10;0.10;;;;;;;;;;5086747;28;20059;-57
2023/08/11 11:54:22;;;;;;;0.20;0.20;;;;;;;;;;5094502;28;20064;-57
2023/08/11 11:56:47;;;;;;;0.10;0.10;;;;;;;;;;5092920;28;20070;-57
2023/08/11 11:59:29;;;;;;;0.10;0.10;;;;;;;;;;5086290;28;20076;-56
2023/08/11 12:02:00;;;;;;;0.10;0.10;;;;;;;;;;5093853;28;20400;-57
2023/08/11 12:04:26;;;;;;;0.17;0.17;;;;;;;;;;5090839;28;20071;-57
2023/08/11 12:06:52;;;;;;;0.10;0.10;;;;;;;;;;5098509;28;20051;-55
2023/08/11 12:09:19;;;;;;;0.10;0.10;;;;;;;;;;5095776;28;20136;-56
2023/08/11 12:11:45;;;;;;;0.10;0.10;;;;;;;;;;5100493;28;20043;-56
2023/08/11 12:14:11;;;;;;;0.20;0.20;;;;;;;;;;5093762;28;20636;-55
2023/08/11 12:16:37;;;;;;;0.10;0.10;;;;;;;;;;5098031;28;20476;-57
2023/08/11 12:19:03;;;;;;;0.20;0.20;;;;;;;;;;5099816;28;20478;-56
2023/08/11 12:21:28;;;;;;;0.10;0.10;;;;;;;;;;5087885;28;20047;-55
2023/08/11 12:23:54;;;;;;;0.10;0.10;;;;;;;;;;5096253;28;20096;-55
2023/08/11 12:26:20;;;;;;;0.10;0.10;;;;;;;;;;5097693;28;20124;-57
2023/08/11 12:28:45;;;;;;;0.15;0.15;;;;;;;;;;5099333;28;20063;-56
2023/08/11 12:31:11;;;;;;;0.17;0.17;;;;;;;;;;5097267;28;20055;-54
2023/08/11 12:33:39;;;;;;;0.10;0.10;;;;;;;;;;5101911;28;20470;-57
2023/08/11 12:36:05;;;;;;;0.10;0.10;;;;;;;;;;5100008;28;20138;-57
2023/08/11 12:38:31;;;;;;;0.10;0.10;;;;;;;;;;5101749;28;20113;-57
2023/08/11 12:40:57;;;;;;;0.10;0.10;;;;;;;;;;5093218;28;20260;-57
2023/08/11 12:43:22;;;;;;;0.20;0.20;;;;;;;;;;5103318;28;20358;-55
2023/08/11 12:45:48;;;;;;;0.32;0.32;;;;;;;;;;5097672;28;20051;-55
2023/08/11 12:48:14;;;;;;;0.20;0.20;;;;;;;;;;5096075;28;20147;-57
2023/08/11 12:50:40;;;;;;;0.10;0.10;;;;;;;;;;5100922;28;20047;-57
2023/08/11 12:53:06;;;;;;;0.10;0.10;;;;;;;;;;5100420;28;20051;-57
2023/08/11 12:55:32;;;;;;;0.17;0.17;;;;;;;;;;5104888;28;20105;-56
2023/08/11 12:58:00;;;;;;;0.20;0.20;;;;;;;;;;5099020;28;20536;-56
2023/08/11 13:00:26;;;;;;;0.10;0.10;;;;;;;;;;5106699;28;20051;-56
2023/08/11 13:02:52;;;;;;;0.10;0.10;;;;;;;;;;5106193;28;20146;-56
2023/08/11 13:05:17;;;;;;;0.20;0.20;;;;;;;;;;5099055;28;20112;-55
2023/08/11 13:07:43;;;;;;;0.10;0.10;;;;;;;;;;5107120;28;20039;-55
2023/08/11 13:10:10;;;;;;;0.20;0.20;;;;;;;;;;5106706;28;20079;-54
2023/08/11 13:12:36;;;;;;;0.10;0.10;;;;;;;;;;5102736;28;20074;-55
2023/08/11 13:15:02;;;;;;;0.15;0.15;;;;;;;;;;5103563;28;20491;-56
2023/08/11 13:17:28;;;;;;;0.10;0.10;;;;;;;;;;5103803;28;20075;-57
2023/08/11 13:19:53;;;;;;;0.10;0.10;;;;;;;;;;5104262;28;20545;-56
2023/08/11 13:22:19;;;;;;;0.10;0.10;;;;;;;;;;5106145;28;20046;-56
2023/08/11 13:24:44;;;;;;;0.10;0.10;;;;;;;;;;5104689;28;20048;-55
2023/08/11 13:27:11;;;;;;;0.10;0.10;;;;;;;;;;5106519;28;20146;-54
2023/08/11 13:29:36;;;;;;;0.10;0.10;;;;;;;;;;5101191;28;20469;-55
2023/08/11 13:32:02;;;;;;;0.15;0.15;;;;;;;;;;5105232;28;20616;-55
2023/08/11 13:34:28;;;;;;;0.20;0.20;;;;;;;;;;5108061;28;20071;-54
2023/08/11 13:36:53;;;;;;;0.10;0.10;;;;;;;;;;5108894;28;20092;-54
2023/08/11 13:39:19;;;;;;;0.10;0.10;;;;;;;;;;5108728;28;20043;-55
2023/08/11 13:41:45;;;;;;;0.13;0.13;;;;;;;;;;5103553;28;20130;-56
2023/08/11 13:44:11;;;;;;;0.20;0.20;;;;;;;;;;5107998;28;20399;-54
2023/08/11 13:46:38;;;;;;;0.10;0.10;;;;;;;;;;5127707;28;20036;-56
2023/08/11 13:49:03;;;;;;;0.10;0.10;;;;;;;;;;5126492;27;20055;-56
2023/08/11 13:51:29;;;;;;;0.10;0.10;;;;;;;;;;5110528;28;20052;-55
2023/08/11 13:53:54;;;;;;;0.10;0.10;;;;;;;;;;5105722;28;20521;-56
2023/08/11 13:56:20;;;;;;;0.20;0.20;;;;;;;;;;5094438;28;20048;-57
2023/08/11 13:58:45;;;;;;;0.13;0.13;;;;;;;;;;5108379;28;20052;-57
2023/08/11 14:01:11;;;;;;;0.10;0.10;;;;;;;;;;5108680;28;20072;-56
2023/08/11 14:03:37;;;;;;;0.10;0.10;;;;;;;;;;5107408;28;20044;-57
2023/08/11 14:06:02;;;;;;;0.10;0.10;;;;;;;;;;5106534;28;20087;-56
2023/08/11 14:08:28;;;;;;;0.10;0.10;;;;;;;;;;5108762;28;20044;-56
2023/08/11 14:10:53;;;;;;;0.10;0.10;;;;;;;;;;5108901;28;20051;-56
2023/08/11 14:13:23;;;;;;;0.15;0.15;;;;;;;;;;5109391;28;20039;-56
2023/08/11 14:15:49;;;;;;;0.20;0.20;;;;;;;;;;5109630;28;20069;-56
2023/08/11 14:18:14;;;;;;;0.20;0.20;;;;;;;;;;5109183;28;20405;-55
2023/08/11 14:20:40;;;;;;;0.10;0.10;;;;;;;;;;5109371;28;20052;-55
2023/08/11 14:23:05;;;;;;;0.17;0.17;;;;;;;;;;5127595;28;20134;-56
2023/08/11 14:25:32;;;;;;;0.20;0.20;;;;;;;;;;5129238;28;20055;-55
2023/08/11 14:27:58;;;;;;;0.20;0.20;;;;;;;;;;5130046;28;20043;-55
2023/08/11 14:30:24;;;;;;;0.17;0.17;;;;;;;;;;5111407;28;20047;-57
2023/08/11 14:32:49;;;;;;;0.10;0.10;;;;;;;;;;5088812;28;20077;-56
2023/08/11 14:35:15;;;;;;;0.10;0.10;;;;;;;;;;5088604;28;20063;-56
2023/08/11 14:37:40;;;;;;;0.10;0.10;;;;;;;;;;5107463;28;20058;-56